Flight Track Log - Related Links

Times and Time Zones

All times are in EDT time to prevent confusion due to time zone crossing. See the AWI3551 flight status page for this flight to view local times or setup timezone preferences in your user account.

Time Position Orientation Groundspeed Altitude Reporting Facility
EDT Latitude Longitude Course Direction KTS MPH feet Rate Location/Type
05:32AM 42.9333 -78.7500 173° South 145 167 1,800  Level Buffalo TRACON
05:33AM 42.8833 -78.7167 154° Southeast 206 237 3,600 1,864 Climbing Buffalo TRACON
05:34AM 42.8453 -78.7142 177° South 195 224 5,000 2,103 Climbing Cleveland Center
05:35AM 42.6464 -78.6893 172° South  Level FlightAware Approximate
05:35AM 42.7847 -78.6992 170° South 234 269 7,000  Level Cleveland Center
05:36AM 42.5512 -78.6702 172° South  Level FlightAware Approximate
05:36AM 42.7219 -78.6953 177° South 234 269 9,200  Level Cleveland Center
05:37AM 42.4558 -78.6537 173° South  Level FlightAware Approximate
05:37AM 42.6636 -78.6914 177° South 234 269 11,400  Level Cleveland Center
05:38AM 42.5842 -78.6825 175° South 254 292 12,700 1,500 Climbing Cleveland Center
05:39AM 42.5008 -78.6739 176° South 283 326 14,400 1,900 Climbing Cleveland Center
05:40AM 42.4192 -78.6567 171° South 296 341 16,500 1,650 Climbing Cleveland Center
05:41AM 42.3350 -78.6169 161° South 306 352 17,700 1,300 Climbing Cleveland Center
05:42AM 42.2531 -78.5775 160° South 312 359 19,100 1,300 Climbing Cleveland Center
05:43AM 42.1544 -78.5358 163° South 330 380 20,300 1,000 Climbing Cleveland Center
05:44AM 42.0639 -78.4939 161° South 335 386 21,100 850 Climbing Cleveland Center
05:45AM 41.9736 -78.4578 163° South 340 391 22,000 950 Climbing Cleveland Center
05:46AM 41.8811 -78.4161 161° South 346 398 23,000 500 Climbing Cleveland Center
05:47AM 41.7928 -78.3744 161° South 346 398 23,000  Level Cleveland Center
05:48AM 41.6983 -78.3333 162° South 346 398 23,000  Level Cleveland Center
05:49AM 41.6078 -78.2947 162° South 346 398 23,000 100 Level Cleveland Center
05:50AM 41.5131 -78.2539 162° South 346 398 23,200 606 Climbing Cleveland Center
05:51AM 41.4539 -78.2283 162° South 358 412 24,000 1,091 Climbing New York Center
05:52AM 41.3567 -78.1844 161° South 365 420 25,000 488 Climbing New York Center
05:53AM 41.2633 -78.1439 162° South 365 420 25,000  Level New York Center
05:54AM 41.1797 -78.0794 150° Southeast 354 407 25,000  Level New York Center
05:55AM 41.1139 -77.9650 127° Southeast 374 430 25,000 -99 Level New York Center
05:56AM 41.0439 -77.8447 128° Southeast 387 445 24,800 -655 Descending New York Center
05:57AM 40.9703 -77.7161 127° Southeast 410 472 23,700 -1,050 Descending New York Center
05:58AM 40.8961 -77.5906 128° Southeast 426 490 22,700 -992 Descending New York Center
05:59AM 40.8242 -77.4653 127° Southeast 432 497 21,700 -992 Descending New York Center
06:00AM 40.7497 -77.3431 129° Southeast 432 497 20,700 -908 Descending New York Center
06:01AM 40.6831 -77.2297 128° Southeast 432 497 19,900 -864 Descending New York Center
06:02AM 40.6103 -77.1081 128° Southeast 424 488 19,000 -458 Descending New York Center
06:03AM 40.5339 -76.9808 128° Southeast 413 475 19,000  Level New York Center
06:04AM 40.4631 -76.8597 128° Southeast 413 475 19,000 -149 Level New York Center
06:05AM 40.3878 -76.7414 130° Southeast 418 481 18,700 -689 Descending New York Center
06:06AM 40.3208 -76.6186 126° Southeast 418 481 17,600 -1,033 Descending New York Center
06:07AM 40.2800 -76.4764 111° Southeast 413 475 16,600 -1,450 Descending New York Center
06:08AM 40.2411 -76.3289 109° East 419 482 14,700 -1,932 Descending New York Center
06:09AM 40.2036 -76.1928 110° East 408 470 12,800 -1,815 Descending New York Center
06:10AM 40.1714 -76.0761 110° East 357 411 11,100 -1,563 Descending New York Center
06:11AM 40.1425 -75.9736 110° East 316 364 9,700 -1,587 Descending New York Center
06:12AM 40.1158 -75.8711 109° East 294 338 7,900 -1,707 Descending New York Center
06:13AM 40.0864 -75.7767 112° Southeast 294 338 6,200 -966 Descending New York Center
06:14AM 40.0822 -75.6814 93° East 289 333 6,000 -101 Descending New York Center
06:15AM 40.1056 -75.5692 75° East 284 327 6,000  Level New York Center
06:16AM 40.0989 -75.4764 95° East 283 326 6,000  Level New York Center
06:17AM 40.0822 -75.3694 101° East 278 320 6,000  Level New York Center
06:18AM 40.0708 -75.2900 101° East 263 303 6,000  Level New York Center
06:19AM 40.0675 -75.2083 93° East 229 264 6,000  Level New York Center
06:20AM 40.0542 -75.1206 101° East 218 251 6,000  Level New York Center
06:20AM 40.0500 -75.0833 98° East 226 260 6,000 -375 Level Philadelphia TRACON
06:21AM 40.0167 -75.0333 131° Southeast 198 228 5,500 -944 Descending Philadelphia TRACON
06:22AM 39.9833 -75.0167 159° South 197 227 4,300 -1,333 Descending Philadelphia TRACON
06:23AM 39.9333 -75.0167 180° South 169 194 3,100 -1,100 Descending Philadelphia TRACON
06:24AM 39.9167 -75.0500 237° Southwest 163 188 2,100 -600 Descending Philadelphia TRACON
06:25AM 39.9000 -75.1000 247° West 130 150 1,900 -200 Descending Philadelphia TRACON

Login

Don't have an account? Register now (free) for customized features, flight alerts, and more!